sensor_id;sensor_type;location;lat;lon;timestamp;P1;durP1;ratioP1;P2;durP2;ratioP2
78402;SDS011;67687;43.508;1.504;2023-07-24T00:02:21;12.88;;;6.25;;
78402;SDS011;67687;43.508;1.504;2023-07-24T00:04:48;12.83;;;6.20;;
78402;SDS011;67687;43.508;1.504;2023-07-24T00:07:16;12.35;;;6.32;;
78402;SDS011;67687;43.508;1.504;2023-07-24T00:09:42;10.00;;;6.35;;
78402;SDS011;67687;43.508;1.504;2023-07-24T00:12:09;11.02;;;6.32;;
78402;SDS011;67687;43.508;1.504;2023-07-24T00:14:36;12.57;;;6.65;;
78402;SDS011;67687;43.508;1.504;2023-07-24T00:17:03;12.83;;;7.00;;
78402;SDS011;67687;43.508;1.504;2023-07-24T00:19:30;10.93;;;6.80;;
78402;SDS011;67687;43.508;1.504;2023-07-24T00:21:56;9.98;;;6.28;;
78402;SDS011;67687;43.508;1.504;2023-07-24T00:24:24;12.45;;;7.07;;
78402;SDS011;67687;43.508;1.504;2023-07-24T00:26:51;15.25;;;6.93;;
78402;SDS011;67687;43.508;1.504;2023-07-24T00:29:18;11.60;;;6.80;;
78402;SDS011;67687;43.508;1.504;2023-07-24T00:31:44;11.18;;;6.55;;
78402;SDS011;67687;43.508;1.504;2023-07-24T00:34:11;12.70;;;7.10;;
78402;SDS011;67687;43.508;1.504;2023-07-24T00:36:38;11.52;;;6.50;;
78402;SDS011;67687;43.508;1.504;2023-07-24T00:39:05;13.20;;;7.05;;
78402;SDS011;67687;43.508;1.504;2023-07-24T00:41:33;12.97;;;6.47;;
78402;SDS011;67687;43.508;1.504;2023-07-24T00:43:59;11.13;;;6.85;;
78402;SDS011;67687;43.508;1.504;2023-07-24T00:46:26;11.25;;;6.97;;
78402;SDS011;67687;43.508;1.504;2023-07-24T00:48:57;17.73;;;6.95;;
78402;SDS011;67687;43.508;1.504;2023-07-24T00:51:23;14.10;;;6.82;;
78402;SDS011;67687;43.508;1.504;2023-07-24T00:53:50;14.47;;;7.03;;
78402;SDS011;67687;43.508;1.504;2023-07-24T00:56:17;11.02;;;6.68;;
78402;SDS011;67687;43.508;1.504;2023-07-24T00:58:45;11.20;;;7.32;;
78402;SDS011;67687;43.508;1.504;2023-07-24T01:01:12;13.65;;;7.78;;
78402;SDS011;67687;43.508;1.504;2023-07-24T01:03:38;13.43;;;7.25;;
78402;SDS011;67687;43.508;1.504;2023-07-24T01:06:05;14.17;;;8.13;;
78402;SDS011;67687;43.508;1.504;2023-07-24T01:08:32;14.05;;;7.57;;
78402;SDS011;67687;43.508;1.504;2023-07-24T01:11:00;12.90;;;7.20;;
78402;SDS011;67687;43.508;1.504;2023-07-24T01:13:31;12.88;;;7.35;;
78402;SDS011;67687;43.508;1.504;2023-07-24T01:16:02;14.20;;;7.47;;
78402;SDS011;67687;43.508;1.504;2023-07-24T01:18:31;11.63;;;7.37;;
78402;SDS011;67687;43.508;1.504;2023-07-24T01:20:58;12.48;;;7.93;;
78402;SDS011;67687;43.508;1.504;2023-07-24T01:23:31;11.73;;;7.68;;
78402;SDS011;67687;43.508;1.504;2023-07-24T01:26:05;13.18;;;7.63;;
78402;SDS011;67687;43.508;1.504;2023-07-24T01:28:33;14.25;;;7.18;;
78402;SDS011;67687;43.508;1.504;2023-07-24T01:31:00;11.83;;;7.37;;
78402;SDS011;67687;43.508;1.504;2023-07-24T01:33:26;13.38;;;7.43;;
78402;SDS011;67687;43.508;1.504;2023-07-24T01:35:54;18.23;;;8.10;;
78402;SDS011;67687;43.508;1.504;2023-07-24T01:38:22;15.52;;;7.30;;
78402;SDS011;67687;43.508;1.504;2023-07-24T01:40:50;10.98;;;7.18;;
78402;SDS011;67687;43.508;1.504;2023-07-24T01:43:19;10.83;;;6.10;;
78402;SDS011;67687;43.508;1.504;2023-07-24T01:45:46;9.95;;;6.15;;
78402;SDS011;67687;43.508;1.504;2023-07-24T01:48:13;11.13;;;6.60;;
78402;SDS011;67687;43.508;1.504;2023-07-24T01:50:39;9.15;;;6.45;;
78402;SDS011;67687;43.508;1.504;2023-07-24T01:53:06;10.38;;;6.82;;
78402;SDS011;67687;43.508;1.504;2023-07-24T01:55:33;9.33;;;7.00;;
78402;SDS011;67687;43.508;1.504;2023-07-24T01:58:00;9.32;;;6.65;;
78402;SDS011;67687;43.508;1.504;2023-07-24T02:00:28;12.80;;;7.45;;
78402;SDS011;67687;43.508;1.504;2023-07-24T02:02:55;11.07;;;7.60;;
78402;SDS011;67687;43.508;1.504;2023-07-24T02:05:21;10.82;;;7.82;;
78402;SDS011;67687;43.508;1.504;2023-07-24T02:07:48;10.70;;;8.13;;
78402;SDS011;67687;43.508;1.504;2023-07-24T02:10:15;11.95;;;8.18;;
78402;SDS011;67687;43.508;1.504;2023-07-24T02:12:41;13.25;;;8.68;;
78402;SDS011;67687;43.508;1.504;2023-07-24T02:15:08;12.63;;;8.57;;
78402;SDS011;67687;43.508;1.504;2023-07-24T02:17:37;12.88;;;8.88;;
78402;SDS011;67687;43.508;1.504;2023-07-24T02:20:04;12.27;;;9.10;;
78402;SDS011;67687;43.508;1.504;2023-07-24T02:22:31;12.63;;;9.27;;
78402;SDS011;67687;43.508;1.504;2023-07-24T02:24:58;15.60;;;9.77;;
78402;SDS011;67687;43.508;1.504;2023-07-24T02:27:26;13.77;;;9.27;;
78402;SDS011;67687;43.508;1.504;2023-07-24T02:29:53;13.25;;;9.23;;
78402;SDS011;67687;43.508;1.504;2023-07-24T02:32:20;13.37;;;10.17;;
78402;SDS011;67687;43.508;1.504;2023-07-24T02:34:49;14.45;;;9.90;;
78402;SDS011;67687;43.508;1.504;2023-07-24T02:37:16;13.10;;;9.30;;
78402;SDS011;67687;43.508;1.504;2023-07-24T02:39:43;12.55;;;9.02;;
78402;SDS011;67687;43.508;1.504;2023-07-24T02:42:10;12.70;;;9.43;;
78402;SDS011;67687;43.508;1.504;2023-07-24T02:44:36;12.50;;;9.17;;
78402;SDS011;67687;43.508;1.504;2023-07-24T02:47:03;13.15;;;9.45;;
78402;SDS011;67687;43.508;1.504;2023-07-24T02:49:30;13.55;;;9.60;;
78402;SDS011;67687;43.508;1.504;2023-07-24T02:51:59;13.20;;;9.38;;
78402;SDS011;67687;43.508;1.504;2023-07-24T02:54:26;13.63;;;9.00;;
78402;SDS011;67687;43.508;1.504;2023-07-24T02:56:52;13.67;;;9.27;;
78402;SDS011;67687;43.508;1.504;2023-07-24T02:59:19;15.30;;;9.48;;
78402;SDS011;67687;43.508;1.504;2023-07-24T03:01:46;12.25;;;9.30;;
78402;SDS011;67687;43.508;1.504;2023-07-24T03:04:12;12.05;;;8.73;;
78402;SDS011;67687;43.508;1.504;2023-07-24T03:06:39;13.90;;;9.60;;
78402;SDS011;67687;43.508;1.504;2023-07-24T03:09:07;13.37;;;9.37;;
78402;SDS011;67687;43.508;1.504;2023-07-24T03:11:34;14.02;;;9.82;;
78402;SDS011;67687;43.508;1.504;2023-07-24T03:14:01;12.85;;;9.13;;
78402;SDS011;67687;43.508;1.504;2023-07-24T03:16:27;13.00;;;8.95;;
78402;SDS011;67687;43.508;1.504;2023-07-24T03:18:54;11.38;;;8.70;;
78402;SDS011;67687;43.508;1.504;2023-07-24T03:21:21;11.97;;;9.13;;
78402;SDS011;67687;43.508;1.504;2023-07-24T03:23:47;13.93;;;9.18;;
78402;SDS011;67687;43.508;1.504;2023-07-24T03:26:15;13.98;;;9.35;;
78402;SDS011;67687;43.508;1.504;2023-07-24T03:28:42;15.40;;;9.85;;
78402;SDS011;67687;43.508;1.504;2023-07-24T03:31:09;14.57;;;9.35;;
78402;SDS011;67687;43.508;1.504;2023-07-24T03:33:36;12.33;;;8.80;;
78402;SDS011;67687;43.508;1.504;2023-07-24T03:36:02;12.35;;;9.40;;
78402;SDS011;67687;43.508;1.504;2023-07-24T03:38:30;13.25;;;9.32;;
78402;SDS011;67687;43.508;1.504;2023-07-24T03:40:56;12.57;;;8.80;;
78402;SDS011;67687;43.508;1.504;2023-07-24T03:43:24;13.23;;;9.77;;
78402;SDS011;67687;43.508;1.504;2023-07-24T03:45:51;13.40;;;9.03;;
78402;SDS011;67687;43.508;1.504;2023-07-24T03:48:18;12.63;;;8.90;;
78402;SDS011;67687;43.508;1.504;2023-07-24T03:50:44;13.82;;;8.85;;
78402;SDS011;67687;43.508;1.504;2023-07-24T03:53:11;14.10;;;9.07;;
78402;SDS011;67687;43.508;1.504;2023-07-24T03:55:38;12.82;;;8.63;;
78402;SDS011;67687;43.508;1.504;2023-07-24T03:58:04;11.97;;;8.30;;
78402;SDS011;67687;43.508;1.504;2023-07-24T04:00:32;12.57;;;8.68;;
78402;SDS011;67687;43.508;1.504;2023-07-24T04:02:59;12.70;;;7.72;;
78402;SDS011;67687;43.508;1.504;2023-07-24T04:05:26;11.82;;;7.65;;
78402;SDS011;67687;43.508;1.504;2023-07-24T04:07:53;11.57;;;7.55;;
78402;SDS011;67687;43.508;1.504;2023-07-24T04:10:20;10.07;;;6.67;;
78402;SDS011;67687;43.508;1.504;2023-07-24T04:12:47;9.63;;;6.85;;
78402;SDS011;67687;43.508;1.504;2023-07-24T04:15:14;12.40;;;6.78;;
78402;SDS011;67687;43.508;1.504;2023-07-24T04:17:42;10.45;;;6.55;;
78402;SDS011;67687;43.508;1.504;2023-07-24T04:20:09;10.63;;;6.82;;
78402;SDS011;67687;43.508;1.504;2023-07-24T04:22:36;10.73;;;6.33;;
78402;SDS011;67687;43.508;1.504;2023-07-24T04:25:03;8.93;;;6.43;;
78402;SDS011;67687;43.508;1.504;2023-07-24T04:27:30;12.50;;;6.55;;
78402;SDS011;67687;43.508;1.504;2023-07-24T04:29:57;9.25;;;6.47;;
78402;SDS011;67687;43.508;1.504;2023-07-24T04:32:25;8.90;;;6.50;;
78402;SDS011;67687;43.508;1.504;2023-07-24T04:34:53;9.80;;;6.40;;
78402;SDS011;67687;43.508;1.504;2023-07-24T04:37:20;10.27;;;6.80;;
78402;SDS011;67687;43.508;1.504;2023-07-24T04:39:47;9.43;;;6.50;;
78402;SDS011;67687;43.508;1.504;2023-07-24T04:42:13;9.57;;;6.53;;
78402;SDS011;67687;43.508;1.504;2023-07-24T04:44:40;9.23;;;6.68;;
78402;SDS011;67687;43.508;1.504;2023-07-24T04:47:07;10.53;;;6.53;;
78402;SDS011;67687;43.508;1.504;2023-07-24T04:49:33;9.70;;;6.60;;
78402;SDS011;67687;43.508;1.504;2023-07-24T04:52:02;9.98;;;6.32;;
78402;SDS011;67687;43.508;1.504;2023-07-24T04:54:29;8.20;;;6.05;;
78402;SDS011;67687;43.508;1.504;2023-07-24T04:56:55;10.15;;;6.32;;
78402;SDS011;67687;43.508;1.504;2023-07-24T04:59:22;10.17;;;6.70;;
78402;SDS011;67687;43.508;1.504;2023-07-24T05:01:49;9.65;;;6.10;;
78402;SDS011;67687;43.508;1.504;2023-07-24T05:04:16;12.20;;;6.75;;
78402;SDS011;67687;43.508;1.504;2023-07-24T05:06:43;10.07;;;6.32;;
78402;SDS011;67687;43.508;1.504;2023-07-24T05:09:11;10.48;;;6.25;;
78402;SDS011;67687;43.508;1.504;2023-07-24T05:11:37;8.60;;;6.03;;
78402;SDS011;67687;43.508;1.504;2023-07-24T05:14:04;13.60;;;6.63;;
78402;SDS011;67687;43.508;1.504;2023-07-24T05:16:31;9.30;;;6.25;;
78402;SDS011;67687;43.508;1.504;2023-07-24T05:18:57;8.98;;;6.00;;
78402;SDS011;67687;43.508;1.504;2023-07-24T05:21:24;9.57;;;6.50;;
78402;SDS011;67687;43.508;1.504;2023-07-24T05:23:51;9.73;;;6.03;;
78402;SDS011;67687;43.508;1.504;2023-07-24T05:26:19;10.27;;;5.95;;
78402;SDS011;67687;43.508;1.504;2023-07-24T05:28:47;9.43;;;6.03;;
78402;SDS011;67687;43.508;1.504;2023-07-24T05:31:14;9.30;;;6.07;;
78402;SDS011;67687;43.508;1.504;2023-07-24T05:33:40;9.48;;;5.97;;
78402;SDS011;67687;43.508;1.504;2023-07-24T05:36:07;8.57;;;5.43;;
78402;SDS011;67687;43.508;1.504;2023-07-24T05:38:34;8.57;;;5.65;;
78402;SDS011;67687;43.508;1.504;2023-07-24T05:41:01;8.90;;;5.70;;
78402;SDS011;67687;43.508;1.504;2023-07-24T05:43:29;9.63;;;6.10;;
78402;SDS011;67687;43.508;1.504;2023-07-24T05:45:57;10.13;;;6.32;;
78402;SDS011;67687;43.508;1.504;2023-07-24T05:48:24;9.00;;;5.97;;
78402;SDS011;67687;43.508;1.504;2023-07-24T05:50:51;8.90;;;6.47;;
78402;SDS011;67687;43.508;1.504;2023-07-24T05:53:18;9.88;;;5.93;;
78402;SDS011;67687;43.508;1.504;2023-07-24T05:55:45;9.05;;;6.20;;
78402;SDS011;67687;43.508;1.504;2023-07-24T05:58:11;8.65;;;5.55;;
78402;SDS011;67687;43.508;1.504;2023-07-24T06:00:40;8.10;;;6.10;;
78402;SDS011;67687;43.508;1.504;2023-07-24T06:03:06;8.32;;;5.88;;
78402;SDS011;67687;43.508;1.504;2023-07-24T06:05:33;8.18;;;5.82;;
78402;SDS011;67687;43.508;1.504;2023-07-24T06:08:00;7.93;;;5.78;;
78402;SDS011;67687;43.508;1.504;2023-07-24T06:10:26;10.20;;;6.53;;
78402;SDS011;67687;43.508;1.504;2023-07-24T06:12:53;7.97;;;5.63;;
78402;SDS011;67687;43.508;1.504;2023-07-24T06:15:20;10.02;;;6.40;;
78402;SDS011;67687;43.508;1.504;2023-07-24T06:17:48;8.70;;;6.35;;
78402;SDS011;67687;43.508;1.504;2023-07-24T06:20:15;9.27;;;6.10;;
78402;SDS011;67687;43.508;1.504;2023-07-24T06:22:41;9.35;;;5.88;;
78402;SDS011;67687;43.508;1.504;2023-07-24T06:25:08;10.07;;;5.53;;
78402;SDS011;67687;43.508;1.504;2023-07-24T06:27:35;8.70;;;6.32;;
78402;SDS011;67687;43.508;1.504;2023-07-24T06:30:03;8.45;;;5.60;;
78402;SDS011;67687;43.508;1.504;2023-07-24T06:32:30;8.93;;;5.90;;
78402;SDS011;67687;43.508;1.504;2023-07-24T06:34:58;8.73;;;6.53;;
78402;SDS011;67687;43.508;1.504;2023-07-24T06:37:24;9.07;;;6.10;;
78402;SDS011;67687;43.508;1.504;2023-07-24T06:39:51;9.32;;;6.25;;
78402;SDS011;67687;43.508;1.504;2023-07-24T06:42:18;8.30;;;6.05;;
78402;SDS011;67687;43.508;1.504;2023-07-24T06:44:44;11.70;;;6.00;;
78402;SDS011;67687;43.508;1.504;2023-07-24T06:47:11;10.43;;;5.93;;
78402;SDS011;67687;43.508;1.504;2023-07-24T06:49:38;9.03;;;6.20;;
78402;SDS011;67687;43.508;1.504;2023-07-24T06:52:06;8.43;;;6.05;;
78402;SDS011;67687;43.508;1.504;2023-07-24T06:54:33;9.18;;;5.95;;
78402;SDS011;67687;43.508;1.504;2023-07-24T06:57:00;9.85;;;6.15;;
78402;SDS011;67687;43.508;1.504;2023-07-24T06:59:26;10.93;;;6.60;;
78402;SDS011;67687;43.508;1.504;2023-07-24T07:01:53;8.57;;;6.27;;
78402;SDS011;67687;43.508;1.504;2023-07-24T07:04:20;9.88;;;6.38;;
78402;SDS011;67687;43.508;1.504;2023-07-24T07:06:47;8.05;;;5.82;;
78402;SDS011;67687;43.508;1.504;2023-07-24T07:09:15;8.93;;;5.82;;
78402;SDS011;67687;43.508;1.504;2023-07-24T07:11:41;10.27;;;5.82;;
78402;SDS011;67687;43.508;1.504;2023-07-24T07:14:09;9.33;;;6.10;;
78402;SDS011;67687;43.508;1.504;2023-07-24T07:16:37;8.82;;;5.93;;
78402;SDS011;67687;43.508;1.504;2023-07-24T07:19:04;9.02;;;5.68;;
78402;SDS011;67687;43.508;1.504;2023-07-24T07:21:31;8.73;;;5.60;;
78402;SDS011;67687;43.508;1.504;2023-07-24T07:23:58;9.30;;;5.95;;
78402;SDS011;67687;43.508;1.504;2023-07-24T07:26:26;8.57;;;5.60;;
78402;SDS011;67687;43.508;1.504;2023-07-24T07:28:54;9.68;;;5.50;;
78402;SDS011;67687;43.508;1.504;2023-07-24T07:31:21;9.20;;;5.57;;
78402;SDS011;67687;43.508;1.504;2023-07-24T07:33:47;7.53;;;5.20;;
78402;SDS011;67687;43.508;1.504;2023-07-24T07:36:14;9.48;;;5.53;;
78402;SDS011;67687;43.508;1.504;2023-07-24T07:38:41;9.63;;;5.60;;
78402;SDS011;67687;43.508;1.504;2023-07-24T07:41:07;8.20;;;5.47;;
78402;SDS011;67687;43.508;1.504;2023-07-24T07:43:35;7.40;;;5.10;;
78402;SDS011;67687;43.508;1.504;2023-07-24T07:46:03;7.03;;;5.20;;
78402;SDS011;67687;43.508;1.504;2023-07-24T07:48:29;10.30;;;5.45;;
78402;SDS011;67687;43.508;1.504;2023-07-24T07:50:57;8.70;;;5.30;;
78402;SDS011;67687;43.508;1.504;2023-07-24T07:53:24;7.85;;;5.32;;
78402;SDS011;67687;43.508;1.504;2023-07-24T07:55:57;7.93;;;5.45;;
78402;SDS011;67687;43.508;1.504;2023-07-24T07:58:24;9.10;;;5.40;;
78402;SDS011;67687;43.508;1.504;2023-07-24T08:00:53;9.25;;;5.55;;
78402;SDS011;67687;43.508;1.504;2023-07-24T08:03:19;9.97;;;5.20;;
78402;SDS011;67687;43.508;1.504;2023-07-24T08:05:46;7.15;;;5.18;;
78402;SDS011;67687;43.508;1.504;2023-07-24T08:08:13;9.25;;;5.53;;
78402;SDS011;67687;43.508;1.504;2023-07-24T08:10:40;8.30;;;5.38;;
78402;SDS011;67687;43.508;1.504;2023-07-24T08:13:06;7.88;;;4.82;;
78402;SDS011;67687;43.508;1.504;2023-07-24T08:15:34;8.53;;;5.50;;
78402;SDS011;67687;43.508;1.504;2023-07-24T08:18:03;9.35;;;5.28;;
78402;SDS011;67687;43.508;1.504;2023-07-24T08:20:30;8.55;;;5.50;;
78402;SDS011;67687;43.508;1.504;2023-07-24T08:22:57;7.88;;;5.28;;
78402;SDS011;67687;43.508;1.504;2023-07-24T08:25:23;8.20;;;5.13;;
78402;SDS011;67687;43.508;1.504;2023-07-24T08:27:50;7.77;;;5.53;;
78402;SDS011;67687;43.508;1.504;2023-07-24T08:30:17;10.55;;;5.60;;
78402;SDS011;67687;43.508;1.504;2023-07-24T08:32:44;8.15;;;5.40;;
78402;SDS011;67687;43.508;1.504;2023-07-24T08:35:12;9.43;;;5.75;;
78402;SDS011;67687;43.508;1.504;2023-07-24T08:37:42;7.07;;;5.03;;
78402;SDS011;67687;43.508;1.504;2023-07-24T08:40:09;8.53;;;5.40;;
78402;SDS011;67687;43.508;1.504;2023-07-24T08:42:37;9.05;;;5.53;;
78402;SDS011;67687;43.508;1.504;2023-07-24T08:45:05;7.32;;;5.35;;
78402;SDS011;67687;43.508;1.504;2023-07-24T08:47:35;7.30;;;5.13;;
78402;SDS011;67687;43.508;1.504;2023-07-24T08:50:02;10.05;;;5.43;;
78402;SDS011;67687;43.508;1.504;2023-07-24T08:52:31;9.67;;;5.23;;
78402;SDS011;67687;43.508;1.504;2023-07-24T08:54:58;8.07;;;4.60;;
78402;SDS011;67687;43.508;1.504;2023-07-24T08:57:28;7.90;;;4.43;;
78402;SDS011;67687;43.508;1.504;2023-07-24T08:59:55;7.38;;;4.70;;
78402;SDS011;67687;43.508;1.504;2023-07-24T09:02:23;7.57;;;5.13;;
78402;SDS011;67687;43.508;1.504;2023-07-24T09:04:50;7.23;;;4.63;;
78402;SDS011;67687;43.508;1.504;2023-07-24T09:07:17;8.43;;;4.75;;
78402;SDS011;67687;43.508;1.504;2023-07-24T09:09:46;7.78;;;4.65;;
78402;SDS011;67687;43.508;1.504;2023-07-24T09:12:14;7.93;;;4.60;;
78402;SDS011;67687;43.508;1.504;2023-07-24T09:14:41;7.03;;;4.43;;
78402;SDS011;67687;43.508;1.504;2023-07-24T09:17:10;8.03;;;4.77;;
78402;SDS011;67687;43.508;1.504;2023-07-24T09:19:38;7.32;;;4.20;;
78402;SDS011;67687;43.508;1.504;2023-07-24T09:22:08;6.88;;;4.38;;
78402;SDS011;67687;43.508;1.504;2023-07-24T09:24:35;6.97;;;4.28;;
78402;SDS011;67687;43.508;1.504;2023-07-24T09:27:05;9.05;;;4.55;;
78402;SDS011;67687;43.508;1.504;2023-07-24T09:29:33;6.33;;;4.00;;
78402;SDS011;67687;43.508;1.504;2023-07-24T09:32:00;8.07;;;4.32;;
78402;SDS011;67687;43.508;1.504;2023-07-24T09:34:27;7.13;;;4.28;;
78402;SDS011;67687;43.508;1.504;2023-07-24T09:36:54;5.93;;;4.10;;
78402;SDS011;67687;43.508;1.504;2023-07-24T09:39:23;6.25;;;4.20;;
78402;SDS011;67687;43.508;1.504;2023-07-24T09:41:50;6.83;;;4.20;;
78402;SDS011;67687;43.508;1.504;2023-07-24T09:44:19;5.82;;;3.97;;
78402;SDS011;67687;43.508;1.504;2023-07-24T09:46:45;7.25;;;4.15;;
78402;SDS011;67687;43.508;1.504;2023-07-24T09:49:12;6.10;;;3.90;;
78402;SDS011;67687;43.508;1.504;2023-07-24T09:51:39;6.57;;;3.70;;
78402;SDS011;67687;43.508;1.504;2023-07-24T09:54:12;6.27;;;3.50;;
78402;SDS011;67687;43.508;1.504;2023-07-24T09:56:42;7.00;;;3.53;;
78402;SDS011;67687;43.508;1.504;2023-07-24T09:59:09;6.78;;;3.53;;
78402;SDS011;67687;43.508;1.504;2023-07-24T10:01:38;5.65;;;3.40;;
78402;SDS011;67687;43.508;1.504;2023-07-24T10:04:05;6.38;;;3.40;;
78402;SDS011;67687;43.508;1.504;2023-07-24T10:06:33;5.13;;;3.40;;
78402;SDS011;67687;43.508;1.504;2023-07-24T10:09:00;6.80;;;3.80;;
78402;SDS011;67687;43.508;1.504;2023-07-24T10:11:27;6.20;;;3.33;;
78402;SDS011;67687;43.508;1.504;2023-07-24T10:13:54;5.55;;;3.25;;
78402;SDS011;67687;43.508;1.504;2023-07-24T10:16:21;6.47;;;3.38;;
78402;SDS011;67687;43.508;1.504;2023-07-24T10:18:49;5.57;;;3.50;;
78402;SDS011;67687;43.508;1.504;2023-07-24T10:21:16;6.13;;;3.53;;
78402;SDS011;67687;43.508;1.504;2023-07-24T10:23:43;5.30;;;3.15;;
78402;SDS011;67687;43.508;1.504;2023-07-24T10:26:11;5.72;;;3.25;;
78402;SDS011;67687;43.508;1.504;2023-07-24T10:28:40;6.03;;;3.33;;
78402;SDS011;67687;43.508;1.504;2023-07-24T10:31:07;6.13;;;3.43;;
78402;SDS011;67687;43.508;1.504;2023-07-24T10:33:45;5.88;;;3.47;;
78402;SDS011;67687;43.508;1.504;2023-07-24T10:36:16;6.78;;;3.72;;
78402;SDS011;67687;43.508;1.504;2023-07-24T10:38:44;5.68;;;3.50;;
78402;SDS011;67687;43.508;1.504;2023-07-24T10:41:12;6.35;;;3.08;;
78402;SDS011;67687;43.508;1.504;2023-07-24T10:43:42;5.20;;;2.87;;
78402;SDS011;67687;43.508;1.504;2023-07-24T10:46:10;7.68;;;3.38;;
78402;SDS011;67687;43.508;1.504;2023-07-24T10:48:37;4.65;;;2.85;;
78402;SDS011;67687;43.508;1.504;2023-07-24T10:51:07;8.00;;;3.22;;
78402;SDS011;67687;43.508;1.504;2023-07-24T10:53:36;6.00;;;3.63;;
78402;SDS011;67687;43.508;1.504;2023-07-24T10:56:04;5.87;;;3.63;;
78402;SDS011;67687;43.508;1.504;2023-07-24T10:58:31;6.05;;;3.30;;
78402;SDS011;67687;43.508;1.504;2023-07-24T11:00:58;6.50;;;3.50;;
78402;SDS011;67687;43.508;1.504;2023-07-24T11:03:25;6.80;;;3.65;;
78402;SDS011;67687;43.508;1.504;2023-07-24T11:05:52;6.72;;;3.05;;
78402;SDS011;67687;43.508;1.504;2023-07-24T11:08:20;6.37;;;3.10;;
78402;SDS011;67687;43.508;1.504;2023-07-24T11:10:48;5.45;;;2.88;;
78402;SDS011;67687;43.508;1.504;2023-07-24T11:13:16;6.57;;;3.20;;
78402;SDS011;67687;43.508;1.504;2023-07-24T11:15:44;6.60;;;3.10;;
78402;SDS011;67687;43.508;1.504;2023-07-24T11:18:11;6.70;;;3.28;;
78402;SDS011;67687;43.508;1.504;2023-07-24T11:20:38;6.87;;;3.17;;
78402;SDS011;67687;43.508;1.504;2023-07-24T11:23:10;5.15;;;3.13;;
78402;SDS011;67687;43.508;1.504;2023-07-24T11:25:36;5.20;;;2.97;;
78402;SDS011;67687;43.508;1.504;2023-07-24T11:28:05;4.95;;;2.42;;
78402;SDS011;67687;43.508;1.504;2023-07-24T11:30:32;4.72;;;2.55;;
78402;SDS011;67687;43.508;1.504;2023-07-24T11:32:59;6.00;;;2.73;;
78402;SDS011;67687;43.508;1.504;2023-07-24T11:35:27;6.10;;;2.80;;
78402;SDS011;67687;43.508;1.504;2023-07-24T11:37:54;4.78;;;2.60;;
78402;SDS011;67687;43.508;1.504;2023-07-24T11:40:20;5.18;;;2.83;;
78402;SDS011;67687;43.508;1.504;2023-07-24T11:42:48;4.32;;;2.25;;
78402;SDS011;67687;43.508;1.504;2023-07-24T11:45:16;4.10;;;2.50;;
78402;SDS011;67687;43.508;1.504;2023-07-24T11:47:43;5.90;;;2.72;;
78402;SDS011;67687;43.508;1.504;2023-07-24T11:50:11;4.35;;;2.45;;
78402;SDS011;67687;43.508;1.504;2023-07-24T11:52:39;4.70;;;2.80;;
78402;SDS011;67687;43.508;1.504;2023-07-24T11:55:08;4.43;;;2.70;;
78402;SDS011;67687;43.508;1.504;2023-07-24T11:57:35;5.93;;;3.00;;
78402;SDS011;67687;43.508;1.504;2023-07-24T12:00:03;5.18;;;2.88;;
78402;SDS011;67687;43.508;1.504;2023-07-24T12:02:32;6.10;;;2.75;;
78402;SDS011;67687;43.508;1.504;2023-07-24T12:04:59;4.72;;;2.60;;
78402;SDS011;67687;43.508;1.504;2023-07-24T12:07:33;5.72;;;2.80;;
78402;SDS011;67687;43.508;1.504;2023-07-24T12:10:00;5.77;;;2.57;;
78402;SDS011;67687;43.508;1.504;2023-07-24T12:12:36;5.28;;;2.80;;
78402;SDS011;67687;43.508;1.504;2023-07-24T12:15:04;6.63;;;2.90;;
78402;SDS011;67687;43.508;1.504;2023-07-24T12:17:33;4.85;;;2.40;;
78402;SDS011;67687;43.508;1.504;2023-07-24T12:20:00;7.30;;;2.80;;
78402;SDS011;67687;43.508;1.504;2023-07-24T12:22:27;5.60;;;2.80;;
78402;SDS011;67687;43.508;1.504;2023-07-24T12:24:53;5.22;;;2.55;;
78402;SDS011;67687;43.508;1.504;2023-07-24T12:27:20;4.90;;;2.58;;
78402;SDS011;67687;43.508;1.504;2023-07-24T12:29:47;5.32;;;2.47;;
78402;SDS011;67687;43.508;1.504;2023-07-24T12:32:13;5.50;;;2.67;;
78402;SDS011;67687;43.508;1.504;2023-07-24T12:34:42;5.40;;;3.00;;
78402;SDS011;67687;43.508;1.504;2023-07-24T12:37:08;5.25;;;2.70;;
78402;SDS011;67687;43.508;1.504;2023-07-24T12:39:35;6.32;;;3.00;;
78402;SDS011;67687;43.508;1.504;2023-07-24T12:42:02;6.85;;;3.00;;
78402;SDS011;67687;43.508;1.504;2023-07-24T12:44:29;5.18;;;2.60;;
78402;SDS011;67687;43.508;1.504;2023-07-24T12:46:56;5.07;;;2.73;;
78402;SDS011;67687;43.508;1.504;2023-07-24T12:49:22;5.38;;;2.80;;
78402;SDS011;67687;43.508;1.504;2023-07-24T12:51:51;5.10;;;3.08;;
78402;SDS011;67687;43.508;1.504;2023-07-24T12:54:17;6.18;;;2.80;;
78402;SDS011;67687;43.508;1.504;2023-07-24T12:56:46;5.47;;;2.78;;
78402;SDS011;67687;43.508;1.504;2023-07-24T12:59:13;4.63;;;2.93;;
78402;SDS011;67687;43.508;1.504;2023-07-24T13:01:40;5.43;;;2.78;;
78402;SDS011;67687;43.508;1.504;2023-07-24T13:04:07;6.40;;;2.85;;
78402;SDS011;67687;43.508;1.504;2023-07-24T13:06:34;4.95;;;3.10;;
78402;SDS011;67687;43.508;1.504;2023-07-24T13:09:02;5.57;;;2.70;;
78402;SDS011;67687;43.508;1.504;2023-07-24T13:11:29;4.93;;;2.90;;
78402;SDS011;67687;43.508;1.504;2023-07-24T13:13:55;6.47;;;2.90;;
78402;SDS011;67687;43.508;1.504;2023-07-24T13:16:23;4.93;;;2.90;;
78402;SDS011;67687;43.508;1.504;2023-07-24T13:18:49;5.50;;;2.80;;
78402;SDS011;67687;43.508;1.504;2023-07-24T13:21:16;5.43;;;3.20;;
78402;SDS011;67687;43.508;1.504;2023-07-24T13:23:43;4.47;;;2.90;;
78402;SDS011;67687;43.508;1.504;2023-07-24T13:26:12;5.40;;;2.80;;
78402;SDS011;67687;43.508;1.504;2023-07-24T13:28:39;4.68;;;2.70;;
78402;SDS011;67687;43.508;1.504;2023-07-24T13:31:12;3.67;;;2.50;;
78402;SDS011;67687;43.508;1.504;2023-07-24T13:33:40;4.72;;;2.55;;
78402;SDS011;67687;43.508;1.504;2023-07-24T13:36:06;4.90;;;2.80;;
78402;SDS011;67687;43.508;1.504;2023-07-24T13:38:33;5.32;;;2.85;;
78402;SDS011;67687;43.508;1.504;2023-07-24T13:41:00;4.63;;;2.75;;
78402;SDS011;67687;43.508;1.504;2023-07-24T13:43:29;5.57;;;2.47;;
78402;SDS011;67687;43.508;1.504;2023-07-24T13:45:56;4.53;;;2.35;;
78402;SDS011;67687;43.508;1.504;2023-07-24T13:48:23;5.83;;;2.43;;
78402;SDS011;67687;43.508;1.504;2023-07-24T13:50:50;4.85;;;2.30;;
78402;SDS011;67687;43.508;1.504;2023-07-24T13:53:17;5.10;;;2.50;;
78402;SDS011;67687;43.508;1.504;2023-07-24T13:55:44;4.53;;;2.70;;
78402;SDS011;67687;43.508;1.504;2023-07-24T13:58:10;4.95;;;2.67;;
78402;SDS011;67687;43.508;1.504;2023-07-24T14:00:38;5.60;;;2.57;;
78402;SDS011;67687;43.508;1.504;2023-07-24T14:03:05;4.97;;;2.50;;
78402;SDS011;67687;43.508;1.504;2023-07-24T14:05:32;4.45;;;2.30;;
78402;SDS011;67687;43.508;1.504;2023-07-24T14:07:59;5.57;;;2.42;;
78402;SDS011;67687;43.508;1.504;2023-07-24T14:10:26;4.88;;;2.65;;
78402;SDS011;67687;43.508;1.504;2023-07-24T14:12:53;4.43;;;2.33;;
78402;SDS011;67687;43.508;1.504;2023-07-24T14:15:20;5.47;;;2.40;;
78402;SDS011;67687;43.508;1.504;2023-07-24T14:17:48;4.40;;;2.50;;
78402;SDS011;67687;43.508;1.504;2023-07-24T14:20:14;4.65;;;2.80;;
78402;SDS011;67687;43.508;1.504;2023-07-24T14:22:41;5.68;;;2.70;;
78402;SDS011;67687;43.508;1.504;2023-07-24T14:25:08;4.10;;;2.50;;
78402;SDS011;67687;43.508;1.504;2023-07-24T14:27:34;4.90;;;2.72;;
78402;SDS011;67687;43.508;1.504;2023-07-24T14:30:01;5.55;;;2.65;;
78402;SDS011;67687;43.508;1.504;2023-07-24T14:32:28;4.45;;;2.67;;
78402;SDS011;67687;43.508;1.504;2023-07-24T14:34:58;5.28;;;2.70;;
78402;SDS011;67687;43.508;1.504;2023-07-24T14:37:24;4.83;;;2.40;;
78402;SDS011;67687;43.508;1.504;2023-07-24T14:39:51;5.72;;;2.50;;
78402;SDS011;67687;43.508;1.504;2023-07-24T14:42:18;4.45;;;2.40;;
78402;SDS011;67687;43.508;1.504;2023-07-24T14:44:44;6.00;;;2.40;;